createdAt,value
2019-02-26T00:01:23.454Z,82.00
2019-02-26T00:03:49.530Z,83.50
2019-02-26T00:06:18.547Z,83.90
2019-02-26T00:08:47.210Z,84.30
2019-02-26T00:11:13.502Z,83.30
2019-02-26T00:13:39.963Z,82.90
2019-02-26T00:16:08.030Z,82.20
2019-02-26T00:18:34.753Z,82.50
2019-02-26T00:21:02.857Z,82.60
2019-02-26T00:23:30.046Z,83.10
2019-02-26T00:25:56.644Z,83.10
2019-02-26T00:28:23.086Z,83.20
2019-02-26T00:30:49.542Z,83.00
2019-02-26T00:33:16.874Z,83.70
2019-02-26T00:35:45.962Z,83.70
2019-02-26T00:38:13.404Z,84.40
2019-02-26T00:40:41.403Z,84.50
2019-02-26T00:43:09.039Z,83.20
2019-02-26T00:45:38.509Z,83.80
2019-02-26T00:48:03.927Z,83.60
2019-02-26T00:50:32.648Z,82.90
2019-02-26T00:52:59.379Z,84.20
2019-02-26T00:55:29.358Z,84.50
2019-02-26T00:57:57.054Z,84.50
2019-02-26T01:00:24.640Z,84.50
2019-02-26T01:02:51.866Z,84.30
2019-02-26T01:05:18.340Z,83.40
2019-02-26T01:07:46.928Z,83.50
2019-02-26T01:10:14.342Z,85.10
2019-02-26T01:12:42.568Z,85.60
2019-02-26T01:15:17.492Z,85.30
2019-02-26T01:17:44.003Z,85.30
2019-02-26T01:20:15.067Z,83.90
2019-02-26T01:22:42.761Z,84.90
2019-02-26T01:25:12.126Z,85.30
2019-02-26T01:27:38.273Z,85.50
2019-02-26T01:30:11.222Z,85.10
2019-02-26T01:32:37.752Z,86.00
2019-02-26T01:35:05.930Z,86.10
2019-02-26T01:37:34.302Z,85.30
2019-02-26T01:40:00.964Z,85.10
2019-02-26T01:42:29.308Z,85.00
2019-02-26T01:44:55.774Z,85.90
2019-02-26T01:47:24.110Z,85.70
2019-02-26T01:49:51.126Z,84.80
2019-02-26T01:52:17.749Z,84.90
2019-02-26T01:54:44.169Z,85.60
2019-02-26T01:57:10.618Z,85.40
2019-02-26T01:59:37.089Z,86.50
2019-02-26T02:02:04.641Z,86.60
2019-02-26T02:04:32.092Z,87.30
2019-02-26T02:07:01.378Z,86.00
2019-02-26T02:09:27.512Z,86.90
2019-02-26T02:11:57.369Z,86.20
2019-02-26T02:14:22.501Z,87.00
2019-02-26T02:16:49.033Z,87.10
2019-02-26T02:19:18.109Z,85.70
2019-02-26T02:21:43.962Z,84.50
2019-02-26T02:24:12.684Z,83.90
2019-02-26T02:26:41.038Z,84.50
2019-02-26T02:29:06.923Z,86.10
2019-02-26T02:31:34.817Z,87.30
2019-02-26T02:34:01.612Z,87.30
2019-02-26T02:36:28.168Z,86.40
2019-02-26T02:38:54.634Z,86.10
2019-02-26T02:41:21.178Z,86.60
2019-02-26T02:43:47.644Z,86.90
2019-02-26T02:46:14.055Z,86.40
2019-02-26T02:48:40.578Z,85.70
2019-02-26T02:51:08.476Z,85.80
2019-02-26T02:53:35.288Z,86.50
2019-02-26T02:56:03.548Z,86.20
2019-02-26T02:58:29.945Z,86.10
2019-02-26T03:00:57.151Z,86.20
2019-02-26T03:03:24.595Z,85.50
2019-02-26T03:05:51.081Z,86.10
2019-02-26T03:08:19.431Z,86.20
2019-02-26T03:10:45.731Z,85.00
2019-02-26T03:13:14.247Z,86.30
2019-02-26T03:15:40.387Z,87.50
2019-02-26T03:18:09.407Z,87.50
2019-02-26T03:20:39.737Z,88.10
2019-02-26T03:23:04.568Z,88.30
2019-02-26T03:25:31.550Z,86.90
2019-02-26T03:27:58.000Z,86.00
2019-02-26T03:30:31.864Z,85.50
2019-02-26T03:32:58.413Z,88.10
2019-02-26T03:35:23.416Z,88.90
2019-02-26T03:37:51.617Z,86.00
2019-02-26T03:40:17.940Z,85.40
2019-02-26T03:42:46.305Z,86.00
2019-02-26T03:45:16.019Z,87.60
2019-02-26T03:47:42.772Z,85.80
2019-02-26T03:50:11.618Z,84.90
2019-02-26T03:52:38.068Z,87.20
2019-02-26T03:55:08.209Z,86.90
2019-02-26T03:57:33.893Z,88.20
2019-02-26T04:00:00.345Z,85.90
2019-02-26T04:02:26.806Z,86.50
2019-02-26T04:04:54.453Z,85.40
2019-02-26T04:07:22.839Z,86.50
2019-02-26T04:09:52.514Z,87.00
2019-02-26T04:12:18.922Z,86.30
2019-02-26T04:14:46.545Z,85.80
2019-02-26T04:17:13.007Z,85.90
2019-02-26T04:19:43.547Z,85.30
2019-02-26T04:22:30.647Z,85.60
2019-02-26T04:25:06.339Z,86.00
2019-02-26T04:27:47.652Z,85.00
2019-02-26T04:30:34.040Z,85.10
2019-02-26T04:33:35.987Z,85.80
2019-02-26T04:36:09.757Z,86.50
2019-02-26T04:39:03.916Z,86.90
2019-02-26T04:41:35.968Z,87.80
2019-02-26T04:44:19.452Z,88.60
2019-02-26T04:46:51.543Z,87.20
2019-02-26T04:49:18.602Z,87.10
2019-02-26T04:51:47.853Z,87.10
2019-02-26T04:54:21.090Z,87.40
2019-02-26T04:56:44.995Z,88.70
2019-02-26T04:59:12.533Z,88.50
2019-02-26T05:01:39.440Z,88.80
2019-02-26T05:04:05.873Z,87.60
2019-02-26T05:06:32.305Z,87.00
2019-02-26T05:09:00.208Z,86.90
2019-02-26T05:11:31.578Z,87.10
2019-02-26T05:13:55.226Z,87.80
2019-02-26T05:16:21.682Z,86.90
2019-02-26T05:18:51.582Z,86.80
2019-02-26T05:21:17.338Z,87.80
2019-02-26T05:23:43.803Z,90.00
2019-02-26T05:26:11.721Z,89.80
2019-02-26T05:28:40.866Z,89.40
2019-02-26T05:31:09.039Z,90.10
2019-02-26T05:33:35.256Z,90.30
2019-02-26T05:36:03.448Z,90.10
2019-02-26T05:38:32.478Z,90.10
2019-02-26T05:40:58.208Z,89.90
2019-02-26T05:43:26.316Z,90.10
2019-02-26T05:45:54.917Z,90.00
2019-02-26T05:48:23.067Z,89.00
2019-02-26T05:50:49.379Z,88.80
2019-02-26T05:53:15.828Z,89.30
2019-02-26T05:55:44.328Z,89.20
2019-02-26T05:58:12.579Z,88.50
2019-02-26T06:00:39.801Z,88.50
2019-02-26T06:03:09.643Z,89.00
2019-02-26T06:05:34.602Z,89.20
2019-02-26T06:08:01.039Z,89.20
2019-02-26T06:10:29.826Z,88.80
2019-02-26T06:12:55.792Z,88.70
2019-02-26T06:15:23.018Z,89.40
2019-02-26T06:17:51.524Z,89.80
2019-02-26T06:20:23.664Z,89.60
2019-02-26T06:22:49.917Z,89.40
2019-02-26T06:25:23.024Z,89.20
2019-02-26T06:27:44.674Z,89.60
2019-02-26T06:30:12.820Z,90.00
2019-02-26T06:32:41.836Z,89.00
2019-02-26T06:35:11.083Z,88.60
2019-02-26T06:37:40.277Z,87.80
2019-02-26T06:40:09.132Z,89.90
2019-02-26T06:42:37.870Z,89.10
2019-02-26T06:45:08.507Z,89.60
2019-02-26T06:47:35.159Z,89.50
2019-02-26T06:50:02.944Z,88.80
2019-02-26T06:52:29.884Z,88.70
2019-02-26T06:54:59.994Z,88.90
2019-02-26T06:57:25.962Z,89.60
2019-02-26T06:59:53.677Z,89.60
2019-02-26T07:02:20.673Z,89.40
2019-02-26T07:04:47.110Z,88.90
2019-02-26T07:07:14.410Z,87.90
2019-02-26T07:09:42.064Z,88.90
2019-02-26T07:12:09.298Z,89.60
2019-02-26T07:14:35.749Z,89.50
2019-02-26T07:17:02.192Z,90.80
2019-02-26T07:19:30.742Z,90.90
2019-02-26T07:21:56.872Z,90.90
2019-02-26T07:24:24.769Z,90.40
2019-02-26T07:26:51.797Z,90.50
2019-02-26T07:29:18.233Z,90.10
2019-02-26T07:31:44.673Z,89.70
2019-02-26T07:34:11.144Z,90.00
2019-02-26T07:36:37.609Z,89.90
2019-02-26T07:39:06.690Z,89.00
2019-02-26T07:41:35.040Z,89.10
2019-02-26T07:44:01.610Z,90.00
2019-02-26T07:46:28.034Z,90.30
2019-02-26T07:48:56.710Z,89.60
2019-02-26T07:51:22.693Z,88.00
2019-02-26T07:53:51.161Z,89.90
2019-02-26T07:56:17.499Z,89.80
2019-02-26T07:58:43.959Z,89.30
2019-02-26T08:01:10.379Z,88.80
2019-02-26T08:03:36.920Z,87.50
2019-02-26T08:06:06.308Z,85.80
2019-02-26T08:08:31.693Z,84.40
2019-02-26T08:10:58.325Z,84.20
2019-02-26T08:13:26.877Z,83.70
2019-02-26T08:15:54.970Z,80.20
2019-02-26T08:18:21.246Z,82.50
2019-02-26T08:20:47.707Z,80.50
2019-02-26T08:23:14.788Z,79.00
2019-02-26T08:25:42.381Z,78.50
2019-02-26T08:28:08.828Z,76.20
2019-02-26T08:30:35.360Z,77.00
2019-02-26T08:33:04.689Z,77.20
2019-02-26T08:35:30.270Z,77.30
2019-02-26T08:37:56.733Z,75.80
2019-02-26T08:40:23.169Z,77.10
2019-02-26T08:42:49.667Z,77.70
2019-02-26T08:45:20.408Z,78.00
2019-02-26T08:47:46.897Z,75.90
2019-02-26T08:50:14.840Z,75.90
2019-02-26T08:52:41.868Z,77.40
2019-02-26T08:55:16.132Z,76.80
2019-02-26T08:57:42.861Z,75.00
2019-02-26T09:00:12.327Z,75.10
2019-02-26T09:02:38.972Z,75.00
2019-02-26T09:05:09.876Z,74.70
2019-02-26T09:07:37.887Z,75.20
2019-02-26T09:10:12.493Z,73.90
2019-02-26T09:12:40.870Z,73.00
2019-02-26T09:15:09.723Z,73.70
2019-02-26T09:17:37.099Z,74.60
2019-02-26T09:20:09.597Z,73.60
2019-02-26T09:22:36.242Z,72.30
2019-02-26T09:25:04.426Z,73.70
2019-02-26T09:27:32.093Z,74.00
2019-02-26T09:29:59.069Z,71.20
2019-02-26T09:32:25.508Z,71.20
2019-02-26T09:34:52.484Z,72.00
2019-02-26T09:37:20.190Z,70.20
2019-02-26T09:39:46.637Z,69.10
2019-02-26T09:42:13.066Z,69.50
2019-02-26T09:44:39.512Z,67.70
2019-02-26T09:47:07.552Z,66.30
2019-02-26T09:49:35.738Z,66.20
2019-02-26T09:52:04.027Z,65.70
2019-02-26T09:54:30.532Z,62.70
2019-02-26T09:56:56.978Z,62.20
2019-02-26T09:59:23.410Z,63.50
2019-02-26T10:01:50.056Z,64.50
2019-02-26T10:04:17.299Z,65.20
2019-02-26T10:06:44.912Z,63.40
2019-02-26T10:09:15.660Z,62.40
2019-02-26T10:11:42.491Z,59.20
2019-02-26T10:14:10.208Z,59.40
2019-02-26T10:16:37.830Z,59.30
2019-02-26T10:19:04.415Z,58.20
2019-02-26T10:21:33.099Z,59.10
2019-02-26T10:23:59.444Z,58.20
2019-02-26T10:26:30.518Z,57.00
2019-02-26T10:28:59.165Z,55.40
2019-02-26T10:31:25.044Z,55.20
2019-02-26T10:33:52.146Z,56.00
2019-02-26T10:36:18.714Z,55.50
2019-02-26T10:38:45.170Z,54.60
2019-02-26T10:41:11.602Z,54.00
2019-02-26T10:43:39.967Z,51.20
2019-02-26T10:46:06.307Z,52.10
2019-02-26T10:48:33.746Z,51.80
2019-02-26T10:51:00.592Z,51.80
2019-02-26T10:53:27.621Z,51.00
2019-02-26T10:55:54.110Z,48.30
2019-02-26T10:58:20.675Z,52.00
2019-02-26T11:00:52.080Z,51.50
2019-02-26T11:03:18.202Z,50.20
2019-02-26T11:05:48.795Z,49.90
2019-02-26T11:08:13.842Z,48.40
2019-02-26T11:10:43.916Z,49.80
2019-02-26T11:13:08.658Z,46.80
2019-02-26T11:15:36.014Z,49.30
2019-02-26T11:18:02.791Z,46.80
2019-02-26T11:20:30.957Z,47.00
2019-02-26T11:22:57.543Z,43.70
2019-02-26T11:25:26.871Z,44.40
2019-02-26T11:27:52.533Z,42.20
2019-02-26T11:30:28.588Z,45.30
2019-02-26T11:32:56.008Z,44.20
2019-02-26T11:35:24.505Z,44.60
2019-02-26T11:37:52.265Z,43.40
2019-02-26T11:40:29.650Z,42.00
2019-02-26T11:42:53.992Z,41.20
2019-02-26T11:45:21.752Z,42.80
2019-02-26T11:47:48.226Z,39.40
2019-02-26T11:50:26.961Z,35.60
2019-02-26T11:52:54.239Z,34.60
2019-02-26T11:55:19.222Z,36.80
2019-02-26T11:57:47.915Z,33.40
2019-02-26T12:00:25.493Z,33.70
2019-02-26T12:02:47.188Z,38.10
2019-02-26T12:05:13.712Z,39.30
2019-02-26T12:07:40.169Z,40.20
2019-02-26T12:10:12.377Z,39.80
2019-02-26T12:12:38.877Z,36.10
2019-02-26T12:15:15.210Z,33.40
2019-02-26T12:17:42.196Z,26.60
2019-02-26T12:20:12.131Z,27.40
2019-02-26T12:22:41.082Z,26.80
2019-02-26T12:25:14.516Z,26.80
2019-02-26T12:27:43.229Z,24.00
2019-02-26T12:30:13.335Z,21.40
2019-02-26T12:32:41.685Z,22.90
2019-02-26T12:35:12.011Z,21.60
2019-02-26T12:37:37.681Z,24.20
2019-02-26T12:40:10.321Z,24.20
2019-02-26T12:42:36.133Z,23.60
2019-02-26T12:45:06.931Z,22.40
2019-02-26T12:47:32.861Z,21.80
2019-02-26T12:50:01.662Z,22.70
2019-02-26T12:52:30.214Z,21.80
2019-02-26T12:54:57.827Z,24.10
2019-02-26T12:57:26.951Z,25.70
2019-02-26T12:59:52.395Z,24.20
2019-02-26T13:02:20.637Z,23.60
2019-02-26T13:04:48.073Z,20.90
2019-02-26T13:07:15.372Z,21.30
2019-02-26T13:09:50.410Z,20.40
2019-02-26T13:12:12.670Z,19.00
2019-02-26T13:14:38.390Z,18.00
2019-02-26T13:17:04.872Z,19.70
2019-02-26T13:19:33.424Z,20.90
2019-02-26T13:22:05.153Z,20.90
2019-02-26T13:24:29.018Z,21.60
2019-02-26T13:26:59.275Z,21.40
2019-02-26T13:29:23.743Z,22.70
2019-02-26T13:31:56.268Z,19.20
2019-02-26T13:34:18.544Z,20.70
2019-02-26T13:36:52.253Z,22.10
2019-02-26T13:39:21.841Z,20.50
2019-02-26T13:41:42.066Z,18.90
2019-02-26T13:44:08.615Z,18.70
2019-02-26T13:46:35.177Z,18.20
2019-02-26T13:49:01.756Z,18.50
2019-02-26T13:51:29.289Z,18.80
2019-02-26T13:53:55.772Z,17.50
2019-02-26T13:56:22.223Z,17.40
2019-02-26T13:58:48.686Z,20.30
2019-02-26T14:01:15.230Z,18.40
2019-02-26T14:03:41.838Z,19.80
2019-02-26T14:06:08.473Z,19.70
2019-02-26T14:08:34.940Z,19.90
2019-02-26T14:11:01.506Z,21.20
2019-02-26T14:13:28.953Z,20.40
2019-02-26T14:15:55.419Z,21.00
2019-02-26T14:18:21.877Z,20.70
2019-02-26T14:20:48.300Z,20.10
2019-02-26T14:23:14.753Z,20.00
2019-02-26T14:25:41.510Z,20.30
2019-02-26T14:28:07.946Z,18.80
2019-02-26T14:30:34.502Z,19.50
2019-02-26T14:33:00.973Z,18.90
2019-02-26T14:35:27.456Z,18.20
2019-02-26T14:37:53.921Z,18.00
2019-02-26T14:40:20.592Z,19.30
2019-02-26T14:42:47.476Z,20.30
2019-02-26T14:45:15.543Z,18.90
2019-02-26T14:47:42.193Z,21.80
2019-02-26T14:50:17.212Z,21.70
2019-02-26T14:52:43.870Z,19.60
2019-02-26T14:55:12.208Z,20.10
2019-02-26T14:57:38.654Z,20.10
2019-02-26T15:00:08.890Z,20.50
2019-02-26T15:02:37.255Z,23.30
2019-02-26T15:05:04.507Z,25.40
2019-02-26T15:07:30.997Z,27.70
2019-02-26T15:09:57.428Z,28.30
2019-02-26T15:12:23.893Z,28.80
2019-02-26T15:14:50.360Z,29.00
2019-02-26T15:17:16.793Z,30.70
2019-02-26T15:19:50.180Z,30.00
2019-02-26T15:22:11.525Z,30.80
2019-02-26T15:24:38.064Z,33.00
2019-02-26T15:27:04.495Z,36.00
2019-02-26T15:29:30.933Z,38.10
2019-02-26T15:31:57.378Z,37.90
2019-02-26T15:34:23.819Z,36.30
2019-02-26T15:36:50.368Z,39.50
2019-02-26T15:39:16.869Z,40.50
2019-02-26T15:41:43.337Z,40.00
2019-02-26T15:44:11.858Z,37.20
2019-02-26T15:46:38.453Z,40.40
2019-02-26T15:49:07.530Z,44.30
2019-02-26T15:51:33.174Z,40.90
2019-02-26T15:53:59.624Z,39.80
2019-02-26T15:56:29.366Z,39.60
2019-02-26T15:58:54.305Z,40.10
2019-02-26T16:01:20.760Z,38.40
2019-02-26T16:03:47.226Z,40.30
2019-02-26T16:06:13.903Z,46.30
2019-02-26T16:08:41.278Z,43.10
2019-02-26T16:11:08.819Z,41.40
2019-02-26T16:13:35.256Z,42.20
2019-02-26T16:16:01.762Z,44.10
2019-02-26T16:18:29.583Z,48.70
2019-02-26T16:20:57.600Z,44.30
2019-02-26T16:23:24.027Z,43.30
2019-02-26T16:25:50.506Z,44.10
2019-02-26T16:28:16.962Z,43.60
2019-02-26T16:30:43.453Z,42.00
2019-02-26T16:33:11.241Z,41.50
2019-02-26T16:35:38.177Z,40.60
2019-02-26T16:38:04.615Z,43.50
2019-02-26T16:40:32.225Z,43.60
2019-02-26T16:42:58.936Z,42.50
2019-02-26T16:45:26.524Z,42.50
2019-02-26T16:47:53.114Z,45.90
2019-02-26T16:50:23.485Z,47.80
2019-02-26T16:52:49.914Z,45.20
2019-02-26T16:55:17.271Z,43.70
2019-02-26T16:57:44.332Z,46.60
2019-02-26T17:00:16.390Z,47.10
2019-02-26T17:02:43.238Z,46.10
2019-02-26T17:05:14.293Z,43.40
2019-02-26T17:07:38.570Z,44.60
2019-02-26T17:10:09.045Z,45.10
2019-02-26T17:12:35.621Z,49.40
2019-02-26T17:15:05.017Z,49.80
2019-02-26T17:17:31.838Z,49.60
2019-02-26T17:19:58.400Z,49.60
2019-02-26T17:22:24.846Z,48.80
2019-02-26T17:24:53.267Z,50.30
2019-02-26T17:27:19.762Z,45.80
2019-02-26T17:29:49.413Z,45.70
2019-02-26T17:32:14.745Z,49.20
2019-02-26T17:34:41.230Z,51.70
2019-02-26T17:37:08.508Z,47.00
2019-02-26T17:39:35.535Z,47.40
2019-02-26T17:42:02.200Z,48.40
2019-02-26T17:44:29.753Z,49.00
2019-02-26T17:46:56.246Z,49.30
2019-02-26T17:49:22.804Z,49.00
2019-02-26T17:51:49.267Z,48.90
2019-02-26T17:54:16.035Z,47.50
2019-02-26T17:56:42.498Z,45.90
2019-02-26T17:59:08.967Z,47.10
2019-02-26T18:01:35.532Z,44.90
2019-02-26T18:04:02.002Z,46.00
2019-02-26T18:06:28.546Z,47.00
2019-02-26T18:08:56.436Z,48.30
2019-02-26T18:11:23.693Z,50.00
2019-02-26T18:13:50.654Z,49.10
2019-02-26T18:16:17.143Z,46.90
2019-02-26T18:18:43.734Z,47.20
2019-02-26T18:21:10.181Z,49.60
2019-02-26T18:23:45.874Z,49.50
2019-02-26T18:26:12.428Z,52.30
2019-02-26T18:28:39.019Z,48.60
2019-02-26T18:31:05.543Z,48.40
2019-02-26T18:33:35.323Z,47.70
2019-02-26T18:36:00.592Z,48.20
2019-02-26T18:38:27.164Z,49.20
2019-02-26T18:40:54.029Z,49.90
2019-02-26T18:43:20.525Z,50.70
2019-02-26T18:45:47.301Z,51.70
2019-02-26T18:48:15.078Z,52.80
2019-02-26T18:50:42.348Z,52.50
2019-02-26T18:53:08.937Z,54.20
2019-02-26T18:55:35.541Z,53.80
2019-02-26T18:58:01.942Z,53.70
2019-02-26T19:00:32.889Z,53.20
2019-02-26T19:02:59.668Z,54.20
2019-02-26T19:05:26.244Z,55.60
2019-02-26T19:07:52.826Z,56.50
2019-02-26T19:10:20.922Z,53.10
2019-02-26T19:12:47.949Z,53.20
2019-02-26T19:15:20.125Z,54.60
2019-02-26T19:17:48.180Z,54.70
2019-02-26T19:20:24.051Z,50.90
2019-02-26T19:22:52.024Z,50.70
2019-02-26T19:25:18.698Z,54.80
2019-02-26T19:27:45.301Z,56.90
2019-02-26T19:30:17.613Z,57.20
2019-02-26T19:32:47.582Z,58.20
2019-02-26T19:35:12.916Z,58.70
2019-02-26T19:37:40.515Z,59.10
2019-02-26T19:40:17.970Z,60.00
2019-02-26T19:42:44.825Z,60.50
2019-02-26T19:45:11.900Z,61.10
2019-02-26T19:47:38.752Z,60.50
2019-02-26T19:50:11.620Z,62.10
2019-02-26T19:52:37.167Z,63.00
2019-02-26T19:55:15.677Z,61.70
2019-02-26T19:57:42.838Z,62.30
2019-02-26T20:00:12.811Z,62.20
2019-02-26T20:02:39.376Z,63.10
2019-02-26T20:05:09.520Z,63.80
2019-02-26T20:07:36.643Z,63.70
2019-02-26T20:10:15.204Z,63.60
2019-02-26T20:12:43.099Z,63.70
2019-02-26T20:15:13.117Z,64.40
2019-02-26T20:17:39.546Z,64.90
2019-02-26T20:20:12.192Z,64.30
2019-02-26T20:22:38.723Z,64.10
2019-02-26T20:25:15.023Z,62.90
2019-02-26T20:27:41.757Z,63.00
2019-02-26T20:30:13.692Z,63.20
2019-02-26T20:32:40.234Z,63.40
2019-02-26T20:35:11.619Z,65.10
2019-02-26T20:37:37.481Z,65.40
2019-02-26T20:40:10.745Z,66.00
2019-02-26T20:42:37.263Z,67.60
2019-02-26T20:45:07.217Z,68.90
2019-02-26T20:47:33.799Z,67.80
2019-02-26T20:50:00.269Z,67.50
2019-02-26T20:52:26.728Z,67.40
2019-02-26T20:54:53.292Z,65.80
2019-02-26T20:57:19.794Z,65.50
2019-02-26T20:59:46.247Z,66.50
2019-02-26T21:02:12.837Z,67.30
2019-02-26T21:04:39.281Z,67.00
2019-02-26T21:07:05.858Z,66.90
2019-02-26T21:09:33.398Z,66.20
2019-02-26T21:11:59.841Z,66.90
2019-02-26T21:14:26.379Z,68.60
2019-02-26T21:16:53.610Z,68.50
2019-02-26T21:19:20.468Z,67.70
2019-02-26T21:21:49.121Z,66.70
2019-02-26T21:24:15.256Z,65.90
2019-02-26T21:26:41.794Z,67.10
2019-02-26T21:29:08.279Z,68.50
2019-02-26T21:31:34.731Z,69.70
2019-02-26T21:34:03.731Z,68.80
2019-02-26T21:36:29.554Z,68.30
2019-02-26T21:38:56.026Z,67.60
2019-02-26T21:41:23.487Z,67.00
2019-02-26T21:43:50.612Z,67.00
2019-02-26T21:46:17.090Z,67.00
2019-02-26T21:48:43.559Z,66.50
2019-02-26T21:51:10.526Z,67.10
2019-02-26T21:53:39.827Z,68.20
2019-02-26T21:56:06.205Z,69.30
2019-02-26T21:58:32.653Z,69.10
2019-02-26T22:00:59.145Z,68.60
2019-02-26T22:03:25.565Z,67.80
2019-02-26T22:05:52.097Z,68.60
2019-02-26T22:08:18.541Z,69.20
2019-02-26T22:10:44.973Z,70.30
2019-02-26T22:13:11.396Z,71.50
2019-02-26T22:15:37.841Z,71.90
2019-02-26T22:18:04.276Z,71.70
2019-02-26T22:20:36.321Z,72.80
2019-02-26T22:23:00.453Z,72.50
2019-02-26T22:25:27.218Z,72.20
2019-02-26T22:27:53.668Z,71.60
2019-02-26T22:30:22.125Z,70.30
2019-02-26T22:32:48.599Z,71.50
2019-02-26T22:35:15.144Z,74.60
2019-02-26T22:37:42.097Z,74.70
2019-02-26T22:40:11.056Z,74.10
2019-02-26T22:42:38.804Z,75.20
2019-02-26T22:45:08.485Z,75.90
2019-02-26T22:47:40.139Z,74.80
2019-02-26T22:50:07.927Z,73.30
2019-02-26T22:52:34.606Z,72.40
2019-02-26T22:55:01.020Z,72.50
2019-02-26T22:57:27.579Z,73.70
2019-02-26T22:59:55.728Z,73.80
2019-02-26T23:02:22.978Z,73.60
2019-02-26T23:04:52.523Z,73.80
2019-02-26T23:07:18.306Z,76.80
2019-02-26T23:09:45.135Z,77.20
2019-02-26T23:12:12.263Z,75.80
2019-02-26T23:14:39.420Z,76.00
2019-02-26T23:17:08.445Z,77.20
2019-02-26T23:19:36.597Z,78.40
2019-02-26T23:22:03.829Z,78.00
2019-02-26T23:24:30.959Z,80.30
2019-02-26T23:26:57.388Z,80.20
2019-02-26T23:29:27.805Z,79.70
2019-02-26T23:31:52.380Z,80.30
2019-02-26T23:34:21.651Z,79.60
2019-02-26T23:36:47.170Z,79.40
2019-02-26T23:39:14.016Z,81.80
2019-02-26T23:41:42.440Z,81.80
2019-02-26T23:44:08.984Z,78.90
2019-02-26T23:46:35.613Z,78.50
2019-02-26T23:49:03.048Z,81.40
2019-02-26T23:51:29.584Z,80.80
2019-02-26T23:53:56.473Z,81.20
2019-02-26T23:56:22.915Z,80.60
2019-02-26T23:58:49.458Z,80.10
